Aérodrome :
LOGIN :

S'inscrire | Disclaimer

   EN    FR    IT 

 










Légende :    VFR   VFR Marginal   IFR   IFR Intensif   IFR Très Intensif
Visi : 
Plafond : 
>= 8 km
>= 3000ft
5 à 8 km
1000 à 3000 ft
1500m à 5 km
500 à 1000 ft
800 à 1500m
200 à 500 ft
< 800m
< 200 ft
Symboles :   Orages  Brouillard  Fortes neiges  Fortes précipitations  Vent > 20 kt
SIGMETs :   Divers  Orages  Givrage  Turbulence  Onde Orograph.  Cendres Volcan.







- Altitude de l'aérodrome : 1416 ft
- Code IATA : ZRH


LSZH - Zurich

DERNIER METAR :
  • 240220Z 35006KT CAVOK M00/M10 Q1034 NOSIG

METARs EXPIRÉS :
  • 240150Z 36005KT CAVOK M00/M09 Q1034 NOSIG
  • 240120Z 34005KT CAVOK M01/M09 Q1034 NOSIG
  • 240050Z 33005KT CAVOK M01/M09 Q1034 NOSIG
  • 232350Z 33004KT CAVOK 01/M08 Q1035 NOSIG

TAF TAF LSZH
Valide du 24 à 03h jusqu'au 25 à 09h UTC


240225Z 2403/2509 35005KT CAVOK TX11/2415Z TNM02/2406Z TNM02/2506Z
PROB40
TEMPO 2416/2421 06010KT
ATIS : +41 43 816 2295 (DEP) +41 43 816 2294 (ARR)
Pas de NOTAMs connus pour ce terrain.



MET'MAP, la Météo Aéronautique d'un coup d'oeil ! - Copyright ORBIFLY Décembre 2007 - Disclaimer

ORBIFLY MET'MAP TEAM :

Programmation & Développement : Alexandra Zaïnal
Conception & Développement : Baudouin d'Aumeries
Co-Programmation & Développement : Marc-Olivier Méhu
Soutien technique & logistique : Manuel Goepfert

Contact : metmap@orbifly.com




SOURCES & CREDITS :

   NOAA